sensor_id;sensor_type;location;lat;lon;timestamp;pressure;altitude;pressure_sealevel;temperature;humidity
22020;BME280;51298;53.362;-1.518;2024-01-25T00:01:05;100545.06;;;3.21;85.19
22020;BME280;51298;53.362;-1.518;2024-01-25T00:04:11;100552.53;;;3.10;85.46
22020;BME280;51298;53.362;-1.518;2024-01-25T00:07:04;100547.19;;;2.97;85.31
22020;BME280;51298;53.362;-1.518;2024-01-25T00:10:11;100549.25;;;2.90;85.80
22020;BME280;51298;53.362;-1.518;2024-01-25T00:13:04;100550.50;;;2.99;86.15
22020;BME280;51298;53.362;-1.518;2024-01-25T00:16:10;100558.94;;;3.03;86.47
22020;BME280;51298;53.362;-1.518;2024-01-25T00:19:03;100561.06;;;2.94;85.75
22020;BME280;51298;53.362;-1.518;2024-01-25T00:22:11;100561.47;;;2.87;86.62
22020;BME280;51298;53.362;-1.518;2024-01-25T00:25:05;100558.31;;;2.82;86.83
22020;BME280;51298;53.362;-1.518;2024-01-25T00:28:11;100557.38;;;2.83;87.19
22020;BME280;51298;53.362;-1.518;2024-01-25T00:31:06;100547.38;;;2.77;87.43
22020;BME280;51298;53.362;-1.518;2024-01-25T00:34:13;100540.09;;;2.67;87.15
22020;BME280;51298;53.362;-1.518;2024-01-25T00:37:08;100536.53;;;2.70;87.15
22020;BME280;51298;53.362;-1.518;2024-01-25T00:40:15;100535.38;;;2.76;88.17
22020;BME280;51298;53.362;-1.518;2024-01-25T00:43:09;100535.38;;;2.76;87.37
22020;BME280;51298;53.362;-1.518;2024-01-25T00:46:17;100531.97;;;2.75;87.77
22020;BME280;51298;53.362;-1.518;2024-01-25T00:49:11;100532.66;;;2.79;87.70
22020;BME280;51298;53.362;-1.518;2024-01-25T00:52:19;100521.66;;;2.75;87.69
22020;BME280;51298;53.362;-1.518;2024-01-25T00:55:14;100506.47;;;2.69;87.57
22020;BME280;51298;53.362;-1.518;2024-01-25T00:58:20;100495.19;;;2.72;87.99
22020;BME280;51298;53.362;-1.518;2024-01-25T01:01:14;100500.22;;;3.06;87.63
22020;BME280;51298;53.362;-1.518;2024-01-25T01:04:24;100510.00;;;3.17;87.25
22020;BME280;51298;53.362;-1.518;2024-01-25T01:07:18;100501.94;;;3.23;87.52
22020;BME280;51298;53.362;-1.518;2024-01-25T01:10:26;100504.16;;;3.13;87.23
22020;BME280;51298;53.362;-1.518;2024-01-25T01:13:19;100487.00;;;3.12;87.17
22020;BME280;51298;53.362;-1.518;2024-01-25T01:16:25;100475.91;;;3.10;86.83
22020;BME280;51298;53.362;-1.518;2024-01-25T01:19:18;100468.94;;;3.12;87.19
22020;BME280;51298;53.362;-1.518;2024-01-25T01:22:26;100464.50;;;3.14;87.33
22020;BME280;51298;53.362;-1.518;2024-01-25T01:25:21;100474.00;;;3.30;86.92
22020;BME280;51298;53.362;-1.518;2024-01-25T01:28:28;100480.66;;;3.34;87.20
22020;BME280;51298;53.362;-1.518;2024-01-25T01:31:21;100476.34;;;3.34;86.74
22020;BME280;51298;53.362;-1.518;2024-01-25T01:34:28;100489.03;;;3.39;86.77
22020;BME280;51298;53.362;-1.518;2024-01-25T01:37:21;100487.84;;;3.29;86.91
22020;BME280;51298;53.362;-1.518;2024-01-25T01:40:28;100476.34;;;3.18;87.07
22020;BME280;51298;53.362;-1.518;2024-01-25T01:43:24;100468.84;;;3.14;87.15
22020;BME280;51298;53.362;-1.518;2024-01-25T01:46:38;100453.34;;;3.14;86.84
22020;BME280;51298;53.362;-1.518;2024-01-25T01:49:32;100442.97;;;3.31;86.77
22020;BME280;51298;53.362;-1.518;2024-01-25T01:52:40;100446.00;;;3.38;86.47
22020;BME280;51298;53.362;-1.518;2024-01-25T01:55:34;100454.63;;;3.38;86.17
22020;BME280;51298;53.362;-1.518;2024-01-25T01:58:42;100456.19;;;3.41;86.80
22020;BME280;51298;53.362;-1.518;2024-01-25T02:01:37;100462.44;;;3.37;86.60
22020;BME280;51298;53.362;-1.518;2024-01-25T02:04:44;100460.69;;;3.37;87.13
22020;BME280;51298;53.362;-1.518;2024-01-25T02:07:37;100443.44;;;3.38;86.67
22020;BME280;51298;53.362;-1.518;2024-01-25T02:10:45;100433.47;;;3.32;86.70
22020;BME280;51298;53.362;-1.518;2024-01-25T02:13:40;100410.13;;;3.33;87.21
22020;BME280;51298;53.362;-1.518;2024-01-25T02:16:47;100409.84;;;3.38;87.57
22020;BME280;51298;53.362;-1.518;2024-01-25T02:19:41;100413.94;;;3.42;87.42
22020;BME280;51298;53.362;-1.518;2024-01-25T02:22:48;100425.50;;;3.51;86.83
22020;BME280;51298;53.362;-1.518;2024-01-25T02:25:41;100433.59;;;3.45;87.60
22020;BME280;51298;53.362;-1.518;2024-01-25T02:28:47;100438.03;;;3.42;87.48
22020;BME280;51298;53.362;-1.518;2024-01-25T02:31:40;100444.34;;;3.37;86.79
22020;BME280;51298;53.362;-1.518;2024-01-25T02:34:48;100448.19;;;3.30;87.27
22020;BME280;51298;53.362;-1.518;2024-01-25T02:37:41;100443.13;;;3.28;87.79
22020;BME280;51298;53.362;-1.518;2024-01-25T02:40:48;100432.28;;;3.22;87.72
22020;BME280;51298;53.362;-1.518;2024-01-25T02:43:42;100434.81;;;3.23;88.15
22020;BME280;51298;53.362;-1.518;2024-01-25T02:46:50;100435.63;;;3.24;88.42
22020;BME280;51298;53.362;-1.518;2024-01-25T02:49:44;100424.69;;;3.18;88.25
22020;BME280;51298;53.362;-1.518;2024-01-25T02:52:50;100404.31;;;3.14;87.90
22020;BME280;51298;53.362;-1.518;2024-01-25T02:55:43;100398.00;;;3.04;88.33
22020;BME280;51298;53.362;-1.518;2024-01-25T02:58:52;100406.06;;;2.98;88.75
22020;BME280;51298;53.362;-1.518;2024-01-25T03:01:46;100405.50;;;2.92;88.50
22020;BME280;51298;53.362;-1.518;2024-01-25T03:04:53;100393.00;;;2.85;88.88
22020;BME280;51298;53.362;-1.518;2024-01-25T03:07:46;100388.16;;;2.79;88.69
22020;BME280;51298;53.362;-1.518;2024-01-25T03:10:53;100376.44;;;2.89;89.75
22020;BME280;51298;53.362;-1.518;2024-01-25T03:13:46;100371.94;;;2.92;89.39
22020;BME280;51298;53.362;-1.518;2024-01-25T03:16:53;100362.72;;;2.88;90.07
22020;BME280;51298;53.362;-1.518;2024-01-25T03:19:46;100374.28;;;2.81;90.38
22020;BME280;51298;53.362;-1.518;2024-01-25T03:22:53;100369.34;;;2.77;90.13
22020;BME280;51298;53.362;-1.518;2024-01-25T03:25:47;100370.28;;;2.76;90.52
22020;BME280;51298;53.362;-1.518;2024-01-25T03:28:54;100359.78;;;2.79;90.70
22020;BME280;51298;53.362;-1.518;2024-01-25T03:31:48;100358.88;;;2.80;90.18
22020;BME280;51298;53.362;-1.518;2024-01-25T03:34:55;100357.38;;;2.76;90.87
22020;BME280;51298;53.362;-1.518;2024-01-25T03:37:48;100346.78;;;2.80;90.57
22020;BME280;51298;53.362;-1.518;2024-01-25T03:40:55;100350.88;;;2.84;91.16
22020;BME280;51298;53.362;-1.518;2024-01-25T03:43:50;100360.31;;;2.85;90.72
22020;BME280;51298;53.362;-1.518;2024-01-25T03:46:57;100367.53;;;2.94;91.29
22020;BME280;51298;53.362;-1.518;2024-01-25T03:49:50;100365.03;;;3.09;91.14
22020;BME280;51298;53.362;-1.518;2024-01-25T03:52:57;100357.50;;;3.20;91.17
22020;BME280;51298;53.362;-1.518;2024-01-25T03:55:50;100353.00;;;3.24;90.89
22020;BME280;51298;53.362;-1.518;2024-01-25T03:58:57;100345.72;;;3.30;91.17
22020;BME280;51298;53.362;-1.518;2024-01-25T04:01:49;100327.94;;;3.26;90.25
22020;BME280;51298;53.362;-1.518;2024-01-25T04:05:00;100326.75;;;3.31;90.51
22020;BME280;51298;53.362;-1.518;2024-01-25T04:07:57;100321.75;;;3.28;90.46
22020;BME280;51298;53.362;-1.518;2024-01-25T04:11:05;100316.09;;;3.22;90.50
22020;BME280;51298;53.362;-1.518;2024-01-25T04:13:58;100316.03;;;3.23;90.95
22020;BME280;51298;53.362;-1.518;2024-01-25T04:17:06;100314.19;;;3.25;91.06
22020;BME280;51298;53.362;-1.518;2024-01-25T04:20:02;100307.53;;;3.21;90.68
22020;BME280;51298;53.362;-1.518;2024-01-25T04:23:08;100310.88;;;3.23;91.54
22020;BME280;51298;53.362;-1.518;2024-01-25T04:26:01;100311.53;;;3.27;90.68
22020;BME280;51298;53.362;-1.518;2024-01-25T04:29:08;100307.38;;;3.24;91.30
22020;BME280;51298;53.362;-1.518;2024-01-25T04:32:01;100281.63;;;3.23;90.87
22020;BME280;51298;53.362;-1.518;2024-01-25T04:35:08;100278.16;;;3.24;90.48
22020;BME280;51298;53.362;-1.518;2024-01-25T04:38:03;100267.22;;;3.18;90.42
22020;BME280;51298;53.362;-1.518;2024-01-25T04:41:10;100258.81;;;3.15;91.00
22020;BME280;51298;53.362;-1.518;2024-01-25T04:44:03;100256.72;;;3.22;90.42
22020;BME280;51298;53.362;-1.518;2024-01-25T04:47:11;100262.59;;;3.09;90.71
22020;BME280;51298;53.362;-1.518;2024-01-25T04:50:04;100249.44;;;3.14;90.29
22020;BME280;51298;53.362;-1.518;2024-01-25T04:53:11;100257.63;;;3.06;90.49
22020;BME280;51298;53.362;-1.518;2024-01-25T04:56:04;100254.09;;;3.07;90.64
22020;BME280;51298;53.362;-1.518;2024-01-25T04:59:11;100249.13;;;3.04;90.50
22020;BME280;51298;53.362;-1.518;2024-01-25T05:02:04;100251.34;;;3.10;90.90
22020;BME280;51298;53.362;-1.518;2024-01-25T05:05:12;100253.44;;;3.20;90.80
22020;BME280;51298;53.362;-1.518;2024-01-25T05:08:05;100242.06;;;3.22;90.63
22020;BME280;51298;53.362;-1.518;2024-01-25T05:11:14;100249.38;;;3.30;90.87
22020;BME280;51298;53.362;-1.518;2024-01-25T05:14:07;100241.44;;;3.33;90.28
22020;BME280;51298;53.362;-1.518;2024-01-25T05:17:14;100237.56;;;3.26;90.02
22020;BME280;51298;53.362;-1.518;2024-01-25T05:20:07;100234.84;;;3.43;91.24
22020;BME280;51298;53.362;-1.518;2024-01-25T05:23:17;100230.06;;;3.65;91.05
22020;BME280;51298;53.362;-1.518;2024-01-25T05:26:10;100232.63;;;3.80;92.13
22020;BME280;51298;53.362;-1.518;2024-01-25T05:29:19;100220.63;;;3.93;91.12
22020;BME280;51298;53.362;-1.518;2024-01-25T05:32:12;100216.63;;;4.02;91.35
22020;BME280;51298;53.362;-1.518;2024-01-25T05:35:19;100219.97;;;4.04;90.89
22020;BME280;51298;53.362;-1.518;2024-01-25T05:38:12;100211.56;;;4.00;91.10
22020;BME280;51298;53.362;-1.518;2024-01-25T05:41:19;100207.69;;;3.93;90.46
22020;BME280;51298;53.362;-1.518;2024-01-25T05:44:13;100204.00;;;3.83;90.63
22020;BME280;51298;53.362;-1.518;2024-01-25T05:47:20;100207.06;;;3.75;89.80
22020;BME280;51298;53.362;-1.518;2024-01-25T05:50:14;100203.13;;;3.70;89.53
22020;BME280;51298;53.362;-1.518;2024-01-25T05:53:21;100196.25;;;3.68;89.93
22020;BME280;51298;53.362;-1.518;2024-01-25T05:56:19;100185.28;;;3.65;90.43
22020;BME280;51298;53.362;-1.518;2024-01-25T05:59:27;100186.13;;;3.65;90.58
22020;BME280;51298;53.362;-1.518;2024-01-25T06:02:34;100196.25;;;3.68;90.40
22020;BME280;51298;53.362;-1.518;2024-01-25T06:05:07;100195.53;;;3.81;90.71
22020;BME280;51298;53.362;-1.518;2024-01-25T06:07:54;100199.31;;;3.89;91.24
22020;BME280;51298;53.362;-1.518;2024-01-25T06:10:30;100205.47;;;4.01;91.00
22020;BME280;51298;53.362;-1.518;2024-01-25T06:13:17;100186.91;;;4.09;90.73
22020;BME280;51298;53.362;-1.518;2024-01-25T06:15:52;100189.13;;;4.01;91.48
22020;BME280;51298;53.362;-1.518;2024-01-25T06:18:39;100193.75;;;3.96;90.37
22020;BME280;51298;53.362;-1.518;2024-01-25T06:21:11;100179.28;;;3.93;90.93
22020;BME280;51298;53.362;-1.518;2024-01-25T06:23:56;100176.50;;;3.96;91.24
22020;BME280;51298;53.362;-1.518;2024-01-25T06:26:29;100168.53;;;3.99;90.80
22020;BME280;51298;53.362;-1.518;2024-01-25T06:29:15;100167.22;;;4.06;91.53
22020;BME280;51298;53.362;-1.518;2024-01-25T06:31:50;100169.97;;;4.18;90.33
22020;BME280;51298;53.362;-1.518;2024-01-25T06:34:39;100168.97;;;4.20;90.71
22020;BME280;51298;53.362;-1.518;2024-01-25T06:37:12;100160.72;;;4.28;90.81
22020;BME280;51298;53.362;-1.518;2024-01-25T06:40:02;100141.69;;;4.29;90.60
22020;BME280;51298;53.362;-1.518;2024-01-25T06:42:35;100141.19;;;4.36;90.22
22020;BME280;51298;53.362;-1.518;2024-01-25T06:45:26;100133.75;;;4.45;89.95
22020;BME280;51298;53.362;-1.518;2024-01-25T06:47:59;100140.88;;;4.41;89.56
22020;BME280;51298;53.362;-1.518;2024-01-25T06:50:46;100134.59;;;4.45;89.65
22020;BME280;51298;53.362;-1.518;2024-01-25T06:53:20;100133.44;;;4.49;90.23
22020;BME280;51298;53.362;-1.518;2024-01-25T06:56:06;100130.47;;;4.55;89.58
22020;BME280;51298;53.362;-1.518;2024-01-25T06:58:41;100128.09;;;4.52;90.25
22020;BME280;51298;53.362;-1.518;2024-01-25T07:01:26;100132.75;;;4.47;90.43
22020;BME280;51298;53.362;-1.518;2024-01-25T07:04:02;100120.31;;;4.52;90.12
22020;BME280;51298;53.362;-1.518;2024-01-25T07:06:49;100115.06;;;4.54;90.45
22020;BME280;51298;53.362;-1.518;2024-01-25T07:09:22;100108.22;;;4.53;91.33
22020;BME280;51298;53.362;-1.518;2024-01-25T07:12:13;100109.03;;;4.53;91.84
22020;BME280;51298;53.362;-1.518;2024-01-25T07:14:46;100105.63;;;4.53;91.10
22020;BME280;51298;53.362;-1.518;2024-01-25T07:17:33;100103.28;;;4.50;91.48
22020;BME280;51298;53.362;-1.518;2024-01-25T07:20:07;100100.88;;;4.47;91.74
22020;BME280;51298;53.362;-1.518;2024-01-25T07:22:52;100104.31;;;4.60;92.19
22020;BME280;51298;53.362;-1.518;2024-01-25T07:25:27;100092.81;;;4.51;92.00
22020;BME280;51298;53.362;-1.518;2024-01-25T07:28:12;100090.84;;;4.55;92.03
22020;BME280;51298;53.362;-1.518;2024-01-25T07:30:46;100099.09;;;4.47;92.43
22020;BME280;51298;53.362;-1.518;2024-01-25T07:33:32;100088.56;;;4.50;92.15
22020;BME280;51298;53.362;-1.518;2024-01-25T07:36:08;100085.75;;;4.40;92.41
22020;BME280;51298;53.362;-1.518;2024-01-25T07:38:53;100085.75;;;4.40;92.92
22020;BME280;51298;53.362;-1.518;2024-01-25T07:41:26;100078.91;;;4.39;92.32
22020;BME280;51298;53.362;-1.518;2024-01-25T07:44:13;100079.75;;;4.53;93.13
22020;BME280;51298;53.362;-1.518;2024-01-25T07:46:46;100075.00;;;4.47;93.37
22020;BME280;51298;53.362;-1.518;2024-01-25T07:49:33;100069.00;;;4.59;93.39
22020;BME280;51298;53.362;-1.518;2024-01-25T07:52:06;100057.09;;;4.56;93.61
22020;BME280;51298;53.362;-1.518;2024-01-25T07:54:51;100056.72;;;4.62;93.52
22020;BME280;51298;53.362;-1.518;2024-01-25T07:57:28;100050.19;;;4.70;93.30
22020;BME280;51298;53.362;-1.518;2024-01-25T08:00:17;100053.16;;;4.76;93.75
22020;BME280;51298;53.362;-1.518;2024-01-25T08:02:50;100056.28;;;4.69;93.65
22020;BME280;51298;53.362;-1.518;2024-01-25T08:06:10;100053.50;;;4.72;93.90
22020;BME280;51298;53.362;-1.518;2024-01-25T08:08:43;100039.09;;;4.68;93.05
22020;BME280;51298;53.362;-1.518;2024-01-25T08:11:30;100041.59;;;4.69;93.84
22020;BME280;51298;53.362;-1.518;2024-01-25T08:14:03;100040.13;;;4.65;93.94
22020;BME280;51298;53.362;-1.518;2024-01-25T08:16:48;100044.06;;;4.71;93.87
22020;BME280;51298;53.362;-1.518;2024-01-25T08:19:26;100033.84;;;4.69;94.46
22020;BME280;51298;53.362;-1.518;2024-01-25T08:22:13;100029.19;;;4.74;93.96
22020;BME280;51298;53.362;-1.518;2024-01-25T08:24:45;100033.31;;;4.77;93.79
22020;BME280;51298;53.362;-1.518;2024-01-25T08:27:32;100036.94;;;4.87;94.41
22020;BME280;51298;53.362;-1.518;2024-01-25T08:30:06;100031.97;;;4.97;94.78
22020;BME280;51298;53.362;-1.518;2024-01-25T08:32:52;100034.09;;;5.03;94.54
22020;BME280;51298;53.362;-1.518;2024-01-25T08:35:25;100029.84;;;5.14;93.89
22020;BME280;51298;53.362;-1.518;2024-01-25T08:38:10;100030.25;;;5.21;93.93
22020;BME280;51298;53.362;-1.518;2024-01-25T08:40:43;100030.53;;;5.29;94.38
22020;BME280;51298;53.362;-1.518;2024-01-25T08:43:29;100026.06;;;5.44;94.76
22020;BME280;51298;53.362;-1.518;2024-01-25T08:46:02;100033.06;;;5.55;94.44
22020;BME280;51298;53.362;-1.518;2024-01-25T08:48:48;100036.69;;;5.65;94.27
22020;BME280;51298;53.362;-1.518;2024-01-25T08:51:21;100029.47;;;5.69;94.17
22020;BME280;51298;53.362;-1.518;2024-01-25T08:54:06;100024.06;;;5.72;93.70
22020;BME280;51298;53.362;-1.518;2024-01-25T08:56:39;100017.03;;;5.74;93.66
22020;BME280;51298;53.362;-1.518;2024-01-25T08:59:25;100019.50;;;5.75;94.22
22020;BME280;51298;53.362;-1.518;2024-01-25T09:02:03;100013.75;;;5.83;94.37
22020;BME280;51298;53.362;-1.518;2024-01-25T09:04:48;99998.94;;;5.85;93.65
22020;BME280;51298;53.362;-1.518;2024-01-25T09:07:21;99998.22;;;5.83;93.64
22020;BME280;51298;53.362;-1.518;2024-01-25T09:10:09;100004.22;;;5.83;94.06
22020;BME280;51298;53.362;-1.518;2024-01-25T09:12:41;99990.00;;;5.89;94.08
22020;BME280;51298;53.362;-1.518;2024-01-25T09:15:27;99994.25;;;5.90;94.05
22020;BME280;51298;53.362;-1.518;2024-01-25T09:18:00;99991.13;;;5.98;94.01
22020;BME280;51298;53.362;-1.518;2024-01-25T09:20:46;99987.56;;;5.99;94.36
22020;BME280;51298;53.362;-1.518;2024-01-25T09:23:20;99984.06;;;6.00;93.98
22020;BME280;51298;53.362;-1.518;2024-01-25T09:26:09;99980.19;;;6.05;94.10
22020;BME280;51298;53.362;-1.518;2024-01-25T09:28:42;99970.06;;;6.14;94.38
22020;BME280;51298;53.362;-1.518;2024-01-25T09:31:29;99972.56;;;6.15;94.01
22020;BME280;51298;53.362;-1.518;2024-01-25T09:34:02;99973.50;;;6.25;93.80
22020;BME280;51298;53.362;-1.518;2024-01-25T09:36:48;99964.56;;;6.29;94.24
22020;BME280;51298;53.362;-1.518;2024-01-25T09:39:21;99971.84;;;6.24;93.90
22020;BME280;51298;53.362;-1.518;2024-01-25T09:42:10;99969.75;;;6.29;93.36
22020;BME280;51298;53.362;-1.518;2024-01-25T09:44:43;99965.06;;;6.34;93.90
22020;BME280;51298;53.362;-1.518;2024-01-25T09:47:30;99967.50;;;6.36;93.71
22020;BME280;51298;53.362;-1.518;2024-01-25T09:50:03;99976.88;;;6.50;93.64
22020;BME280;51298;53.362;-1.518;2024-01-25T09:52:54;99973.19;;;6.52;93.56
22020;BME280;51298;53.362;-1.518;2024-01-25T09:55:30;99967.09;;;6.53;93.80
22020;BME280;51298;53.362;-1.518;2024-01-25T09:58:18;99975.56;;;6.55;93.63
22020;BME280;51298;53.362;-1.518;2024-01-25T10:00:52;99980.06;;;6.53;93.30
22020;BME280;51298;53.362;-1.518;2024-01-25T10:03:41;99969.53;;;6.55;93.43
22020;BME280;51298;53.362;-1.518;2024-01-25T10:06:15;99963.41;;;6.56;93.59
22020;BME280;51298;53.362;-1.518;2024-01-25T10:09:04;99963.53;;;6.54;93.56
22020;BME280;51298;53.362;-1.518;2024-01-25T10:11:37;99957.03;;;6.60;93.35
22020;BME280;51298;53.362;-1.518;2024-01-25T10:14:22;99953.25;;;6.64;93.32
22020;BME280;51298;53.362;-1.518;2024-01-25T10:16:57;99948.88;;;6.65;92.83
22020;BME280;51298;53.362;-1.518;2024-01-25T10:19:44;99944.19;;;6.70;92.96
22020;BME280;51298;53.362;-1.518;2024-01-25T10:22:18;99942.41;;;6.70;93.19
22020;BME280;51298;53.362;-1.518;2024-01-25T10:25:13;99939.59;;;6.73;93.21
22020;BME280;51298;53.362;-1.518;2024-01-25T10:27:46;99948.44;;;6.82;93.03
22020;BME280;51298;53.362;-1.518;2024-01-25T10:30:34;99948.19;;;6.74;92.72
22020;BME280;51298;53.362;-1.518;2024-01-25T10:33:09;99951.47;;;6.87;93.40
22020;BME280;51298;53.362;-1.518;2024-01-25T10:35:56;99949.00;;;6.97;92.51
22020;BME280;51298;53.362;-1.518;2024-01-25T10:38:34;99954.44;;;6.94;92.48
22020;BME280;51298;53.362;-1.518;2024-01-25T10:41:23;99951.34;;;7.11;92.21
22020;BME280;51298;53.362;-1.518;2024-01-25T10:43:56;99937.63;;;7.20;92.11
22020;BME280;51298;53.362;-1.518;2024-01-25T10:46:42;99937.03;;;7.17;92.12
22020;BME280;51298;53.362;-1.518;2024-01-25T10:49:17;99934.53;;;7.26;91.62
22020;BME280;51298;53.362;-1.518;2024-01-25T10:52:05;99944.44;;;7.32;91.82
22020;BME280;51298;53.362;-1.518;2024-01-25T10:54:39;99935.47;;;7.25;92.11
22020;BME280;51298;53.362;-1.518;2024-01-25T10:57:25;99923.78;;;7.31;92.11
22020;BME280;51298;53.362;-1.518;2024-01-25T11:00:01;99909.66;;;7.45;91.70
22020;BME280;51298;53.362;-1.518;2024-01-25T11:02:46;99918.63;;;7.52;91.42
22020;BME280;51298;53.362;-1.518;2024-01-25T11:05:23;99912.16;;;7.46;91.63
22020;BME280;51298;53.362;-1.518;2024-01-25T11:08:18;99913.56;;;7.50;91.72
22020;BME280;51298;53.362;-1.518;2024-01-25T11:10:52;99900.06;;;7.56;91.57
22020;BME280;51298;53.362;-1.518;2024-01-25T11:13:40;99907.59;;;7.59;91.32
22020;BME280;51298;53.362;-1.518;2024-01-25T11:16:14;99910.53;;;7.66;91.78
22020;BME280;51298;53.362;-1.518;2024-01-25T11:19:01;99913.00;;;7.68;91.64
22020;BME280;51298;53.362;-1.518;2024-01-25T11:21:42;99903.16;;;7.71;91.41
22020;BME280;51298;53.362;-1.518;2024-01-25T11:24:37;99902.06;;;7.85;90.93
22020;BME280;51298;53.362;-1.518;2024-01-25T11:27:11;99906.44;;;7.85;90.86
22020;BME280;51298;53.362;-1.518;2024-01-25T11:29:57;99893.63;;;7.93;90.47
22020;BME280;51298;53.362;-1.518;2024-01-25T11:32:30;99880.47;;;7.94;90.47
22020;BME280;51298;53.362;-1.518;2024-01-25T11:35:17;99873.44;;;7.85;90.77
22020;BME280;51298;53.362;-1.518;2024-01-25T11:37:50;99878.19;;;8.01;90.56
22020;BME280;51298;53.362;-1.518;2024-01-25T11:40:36;99878.94;;;8.13;89.73
22020;BME280;51298;53.362;-1.518;2024-01-25T11:43:09;99865.41;;;8.19;89.69
22020;BME280;51298;53.362;-1.518;2024-01-25T11:45:56;99861.81;;;8.41;89.65
22020;BME280;51298;53.362;-1.518;2024-01-25T11:48:32;99847.66;;;8.33;89.21
22020;BME280;51298;53.362;-1.518;2024-01-25T11:51:19;99842.78;;;8.40;89.26
22020;BME280;51298;53.362;-1.518;2024-01-25T11:53:52;99839.94;;;8.43;88.90
22020;BME280;51298;53.362;-1.518;2024-01-25T11:56:41;99839.94;;;8.53;88.77
22020;BME280;51298;53.362;-1.518;2024-01-25T11:59:13;99833.25;;;8.50;89.01
22020;BME280;51298;53.362;-1.518;2024-01-25T12:01:59;99829.81;;;8.50;88.96
22020;BME280;51298;53.362;-1.518;2024-01-25T12:04:32;99825.59;;;8.59;88.85
22020;BME280;51298;53.362;-1.518;2024-01-25T12:07:18;99821.34;;;8.67;88.49
22020;BME280;51298;53.362;-1.518;2024-01-25T12:10:17;99827.81;;;8.73;88.19
22020;BME280;51298;53.362;-1.518;2024-01-25T12:13:11;99814.78;;;8.73;88.14
22020;BME280;51298;53.362;-1.518;2024-01-25T12:15:45;99817.66;;;8.70;88.24
22020;BME280;51298;53.362;-1.518;2024-01-25T12:18:32;99813.00;;;8.83;88.75
22020;BME280;51298;53.362;-1.518;2024-01-25T12:21:05;99810.00;;;8.88;88.01
22020;BME280;51298;53.362;-1.518;2024-01-25T12:23:54;99810.97;;;8.96;88.14
22020;BME280;51298;53.362;-1.518;2024-01-25T12:26:27;99808.38;;;8.96;88.03
22020;BME280;51298;53.362;-1.518;2024-01-25T12:29:12;99802.88;;;8.90;88.19
22020;BME280;51298;53.362;-1.518;2024-01-25T12:31:45;99801.09;;;8.80;87.79
22020;BME280;51298;53.362;-1.518;2024-01-25T12:34:32;99790.38;;;8.74;88.16
22020;BME280;51298;53.362;-1.518;2024-01-25T12:37:05;99785.59;;;8.79;88.40
22020;BME280;51298;53.362;-1.518;2024-01-25T12:39:51;99790.94;;;8.77;88.90
22020;BME280;51298;53.362;-1.518;2024-01-25T12:42:25;99782.16;;;8.78;88.61
22020;BME280;51298;53.362;-1.518;2024-01-25T12:45:12;99779.16;;;8.83;88.51
22020;BME280;51298;53.362;-1.518;2024-01-25T12:47:45;99769.44;;;8.85;88.79
22020;BME280;51298;53.362;-1.518;2024-01-25T12:50:32;99767.63;;;8.86;88.54
22020;BME280;51298;53.362;-1.518;2024-01-25T12:53:04;99766.41;;;8.90;88.48
22020;BME280;51298;53.362;-1.518;2024-01-25T12:55:50;99765.84;;;9.05;88.54
22020;BME280;51298;53.362;-1.518;2024-01-25T12:58:23;99756.38;;;8.95;88.93
22020;BME280;51298;53.362;-1.518;2024-01-25T13:01:10;99754.59;;;8.95;89.27
22020;BME280;51298;53.362;-1.518;2024-01-25T13:03:43;99760.94;;;8.93;89.34
22020;BME280;51298;53.362;-1.518;2024-01-25T13:06:29;99754.09;;;8.92;89.21
22020;BME280;51298;53.362;-1.518;2024-01-25T13:09:03;99758.31;;;8.93;89.12
22020;BME280;51298;53.362;-1.518;2024-01-25T13:11:48;99758.88;;;8.96;89.55
22020;BME280;51298;53.362;-1.518;2024-01-25T13:14:21;99754.47;;;8.97;89.83
22020;BME280;51298;53.362;-1.518;2024-01-25T13:17:08;99746.53;;;8.89;89.87
22020;BME280;51298;53.362;-1.518;2024-01-25T13:19:41;99740.63;;;8.96;90.19
22020;BME280;51298;53.362;-1.518;2024-01-25T13:22:26;99736.22;;;9.16;89.83
22020;BME280;51298;53.362;-1.518;2024-01-25T13:25:02;99726.59;;;9.36;88.97
22020;BME280;51298;53.362;-1.518;2024-01-25T13:27:50;99724.25;;;9.43;88.46
22020;BME280;51298;53.362;-1.518;2024-01-25T13:30:26;99726.69;;;9.44;88.72
22020;BME280;51298;53.362;-1.518;2024-01-25T13:33:12;99728.75;;;9.50;88.05
22020;BME280;51298;53.362;-1.518;2024-01-25T13:35:45;99726.81;;;9.52;88.36
22020;BME280;51298;53.362;-1.518;2024-01-25T13:38:31;99724.06;;;9.54;88.22
22020;BME280;51298;53.362;-1.518;2024-01-25T13:41:04;99716.97;;;9.46;88.59
22020;BME280;51298;53.362;-1.518;2024-01-25T13:43:50;99709.97;;;9.37;88.83
22020;BME280;51298;53.362;-1.518;2024-01-25T13:46:36;99705.06;;;9.34;89.06
22020;BME280;51298;53.362;-1.518;2024-01-25T13:49:09;99700.78;;;9.33;89.08
22020;BME280;51298;53.362;-1.518;2024-01-25T13:51:55;99697.78;;;9.28;89.39
22020;BME280;51298;53.362;-1.518;2024-01-25T13:54:31;99689.81;;;9.29;89.44
22020;BME280;51298;53.362;-1.518;2024-01-25T13:57:17;99691.34;;;9.22;89.69
22020;BME280;51298;53.362;-1.518;2024-01-25T13:59:52;99674.34;;;9.28;89.73
22020;BME280;51298;53.362;-1.518;2024-01-25T14:02:40;99671.44;;;9.31;89.47
22020;BME280;51298;53.362;-1.518;2024-01-25T14:05:15;99671.56;;;9.29;89.37
22020;BME280;51298;53.362;-1.518;2024-01-25T14:08:02;99668.69;;;9.33;89.86
22020;BME280;51298;53.362;-1.518;2024-01-25T14:10:34;99669.50;;;9.33;89.41
22020;BME280;51298;53.362;-1.518;2024-01-25T14:13:19;99668.16;;;9.29;89.77
22020;BME280;51298;53.362;-1.518;2024-01-25T14:15:52;99663.22;;;9.26;89.52
22020;BME280;51298;53.362;-1.518;2024-01-25T14:18:39;99650.50;;;9.23;89.93
22020;BME280;51298;53.362;-1.518;2024-01-25T14:21:12;99643.06;;;9.28;89.93
22020;BME280;51298;53.362;-1.518;2024-01-25T14:23:59;99645.50;;;9.29;90.34
22020;BME280;51298;53.362;-1.518;2024-01-25T14:26:32;99639.63;;;9.27;90.17
22020;BME280;51298;53.362;-1.518;2024-01-25T14:29:17;99633.19;;;9.22;90.83
22020;BME280;51298;53.362;-1.518;2024-01-25T14:31:50;99625.78;;;9.27;90.51
22020;BME280;51298;53.362;-1.518;2024-01-25T14:34:36;99618.25;;;9.24;90.26
22020;BME280;51298;53.362;-1.518;2024-01-25T14:37:09;99622.88;;;9.30;90.50
22020;BME280;51298;53.362;-1.518;2024-01-25T14:39:57;99614.22;;;9.29;90.79
22020;BME280;51298;53.362;-1.518;2024-01-25T14:42:30;99614.47;;;9.36;90.30
22020;BME280;51298;53.362;-1.518;2024-01-25T14:45:17;99607.91;;;9.42;89.95